Time;durP1;ratioP1;P1;durP2;ratioP2;P2;SDS_P1;SDS_P2;PMS_P1;PMS_P2;Temp;Humidity;BMP_temperature;BMP_pressure;BME280_temperature;BME280_humidity;BME280_pressure;Samples;Min_cycle;Max_cycle;Signal;HPM_P1;HPM_P2
2022/03/10 00:00:24;;;;;;;31.40;15.85;;;;;;;6.54;35.99;102216.50;5010555;28;20052;-72
2022/03/10 00:02:50;;;;;;;36.78;15.60;;;;;;;6.54;36.04;102219.19;5011244;28;20065;-71
2022/03/10 00:05:18;;;;;;;30.25;15.27;;;;;;;6.53;36.25;102220.13;4993271;28;20054;-71
2022/03/10 00:07:45;;;;;;;31.52;15.40;;;;;;;6.83;35.77;102219.13;5010826;28;20548;-71
2022/03/10 00:10:12;;;;;;;35.05;15.95;;;;;;;6.50;36.41;102228.31;5010997;28;20406;-71
2022/03/10 00:12:46;;;;;;;35.97;17.38;;;;;;;6.47;36.58;102231.19;5018269;28;20375;-71
2022/03/10 00:15:13;;;;;;;30.98;15.73;;;;;;;6.52;36.35;102239.72;5028367;28;20077;-71
2022/03/10 00:17:40;;;;;;;33.17;15.65;;;;;;;6.28;36.87;102242.13;5009723;28;20511;-72
2022/03/10 00:20:07;;;;;;;42.58;18.23;;;;;;;6.20;37.16;102244.38;5016551;28;20053;-72
2022/03/10 00:22:48;;;;;;;36.00;16.50;;;;;;;6.86;36.05;102253.59;5031198;28;20111;-72
2022/03/10 00:25:15;;;;;;;42.50;16.33;;;;;;;7.08;35.56;102245.91;5031279;28;20543;-72
2022/03/10 00:27:44;;;;;;;36.47;17.20;;;;;;;6.86;35.98;102248.25;5033978;28;20069;-71
2022/03/10 00:30:11;;;;;;;38.75;16.35;;;;;;;6.81;36.01;102250.38;5034423;28;20132;-72
2022/03/10 00:32:45;;;;;;;39.30;15.95;;;;;;;6.95;35.74;102253.00;5033621;28;20136;-72
2022/03/10 00:35:17;;;;;;;32.15;16.25;;;;;;;6.94;35.83;102257.50;5026814;28;20072;-71
2022/03/10 00:37:50;;;;;;;35.50;17.02;;;;;;;7.29;35.26;102257.00;5019494;28;20046;-71
2022/03/10 00:40:17;;;;;;;32.08;17.08;;;;;;;6.91;36.08;102256.81;5034166;28;20057;-71
2022/03/10 00:42:44;;;;;;;36.67;16.88;;;;;;;7.30;35.12;102260.53;5033334;28;20081;-72
2022/03/10 00:45:12;;;;;;;35.20;17.27;;;;;;;6.94;35.97;102257.50;5015550;28;20063;-71
2022/03/10 00:47:39;;;;;;;34.42;16.52;;;;;;;7.24;35.45;102259.13;5033975;28;20084;-71
2022/03/10 00:50:07;;;;;;;37.70;17.65;;;;;;;7.27;35.46;102256.25;5031292;28;20069;-71
2022/03/10 00:52:43;;;;;;;33.42;17.23;;;;;;;7.49;35.06;102263.69;5013741;28;20069;-71
2022/03/10 00:55:11;;;;;;;36.78;17.02;;;;;;;7.06;35.98;102260.31;5012801;28;20101;-72
2022/03/10 00:57:39;;;;;;;33.58;16.45;;;;;;;7.02;35.79;102266.81;5016781;28;20124;-71
2022/03/10 01:00:08;;;;;;;41.15;17.63;;;;;;;6.90;36.25;102263.13;5022564;28;20050;-72
2022/03/10 01:02:36;;;;;;;37.95;17.88;;;;;;;7.41;35.08;102263.34;5012994;28;20464;-71
2022/03/10 01:05:04;;;;;;;33.88;17.27;;;;;;;7.02;35.92;102269.50;5014299;28;20061;-72
2022/03/10 01:07:30;;;;;;;36.88;17.75;;;;;;;7.16;35.50;102266.78;5029609;28;20079;-71
2022/03/10 01:09:57;;;;;;;35.00;18.17;;;;;;;7.24;35.26;102263.59;5033287;28;20049;-72
2022/03/10 01:12:24;;;;;;;33.13;18.05;;;;;;;7.20;35.73;102273.63;5033795;28;20128;-72
2022/03/10 01:14:51;;;;;;;36.13;18.30;;;;;;;6.59;36.81;102272.19;5024212;28;20034;-71
2022/03/10 01:17:19;;;;;;;36.20;17.83;;;;;;;6.62;36.79;102275.53;5012171;28;20046;-71
2022/03/10 01:19:46;;;;;;;39.10;18.25;;;;;;;6.60;36.89;102284.56;5013979;28;20050;-71
2022/03/10 01:22:14;;;;;;;41.25;18.90;;;;;;;6.38;37.18;102277.06;5016269;28;20394;-72
2022/03/10 01:24:41;;;;;;;40.83;18.98;;;;;;;6.48;36.75;102286.22;5022015;28;20133;-72
2022/03/10 01:27:08;;;;;;;37.63;18.35;;;;;;;6.12;37.81;102287.50;5021034;28;20073;-72
2022/03/10 01:29:35;;;;;;;38.95;18.08;;;;;;;6.66;36.85;102286.88;5032292;28;20132;-71
2022/03/10 01:32:02;;;;;;;47.95;18.73;;;;;;;6.68;36.71;102293.81;5018188;28;20060;-72
2022/03/10 01:34:31;;;;;;;35.42;17.90;;;;;;;5.45;38.77;102302.97;5012306;28;20049;-71
2022/03/10 01:36:57;;;;;;;37.13;19.05;;;;;;;5.50;39.28;102292.91;5012245;28;20125;-72
2022/03/10 01:39:25;;;;;;;39.67;18.67;;;;;;;5.43;39.37;102296.88;5014605;28;20133;-71
2022/03/10 01:41:51;;;;;;;39.65;18.35;;;;;;;5.32;39.68;102288.66;5023543;28;20133;-72
2022/03/10 01:44:20;;;;;;;38.50;18.20;;;;;;;5.10;40.50;102277.50;5022273;28;20490;-72
2022/03/10 01:46:47;;;;;;;37.50;19.23;;;;;;;5.96;38.44;102286.69;5012515;28;20544;-72
2022/03/10 01:49:13;;;;;;;37.95;18.63;;;;;;;5.67;38.93;102283.09;5028005;28;20056;-71
2022/03/10 01:51:40;;;;;;;50.20;19.70;;;;;;;5.64;39.16;102273.47;5032697;28;20138;-71
2022/03/10 01:54:07;;;;;;;33.30;17.77;;;;;;;6.04;38.16;102276.41;5032036;28;20068;-71
2022/03/10 01:56:34;;;;;;;39.70;19.02;;;;;;;5.88;38.67;102281.81;5025706;28;20045;-71
2022/03/10 01:59:02;;;;;;;37.90;18.92;;;;;;;5.46;39.37;102287.88;5011682;28;20073;-71
2022/03/10 02:01:31;;;;;;;40.63;18.77;;;;;;;5.47;39.50;102289.59;5011597;28;20077;-71
2022/03/10 02:03:58;;;;;;;39.13;18.48;;;;;;;4.90;40.63;102284.81;5012370;28;20125;-71
2022/03/10 02:10:18;;;;;;;42.75;18.58;;;;;;;5.07;40.66;102289.16;5024197;28;20068;-71
2022/03/10 02:12:53;;;;;;;40.72;19.20;;;;;;;5.14;40.28;102298.53;5017545;28;20053;-71
2022/03/10 02:18:08;;;;;;;42.50;21.02;;;;;;;5.52;39.89;102295.47;5016178;28;20512;-71
2022/03/10 02:20:36;;;;;;;43.90;19.88;;;;;;;5.75;39.30;102292.34;5012703;28;20128;-71
2022/03/10 02:23:04;;;;;;;43.60;20.63;;;;;;;5.28;40.02;102289.75;5012908;28;20065;-71
2022/03/10 02:25:31;;;;;;;44.17;20.42;;;;;;;5.43;39.90;102296.88;5012844;28;20050;-71
2022/03/10 02:27:58;;;;;;;44.85;21.15;;;;;;;5.03;40.53;102300.94;5011369;28;20073;-71
2022/03/10 02:30:28;;;;;;;46.67;21.38;;;;;;;5.12;40.59;102300.44;5015518;28;20060;-71
2022/03/10 02:32:55;;;;;;;51.13;20.67;;;;;;;5.64;39.71;102302.78;5020356;28;20081;-71
2022/03/10 02:35:22;;;;;;;43.78;19.63;;;;;;;5.15;40.64;102310.91;5014546;28;20074;-71
2022/03/10 02:37:48;;;;;;;45.58;20.30;;;;;;;5.32;40.27;102312.63;5027752;28;20055;-71
2022/03/10 02:40:14;;;;;;;43.50;21.17;;;;;;;5.29;40.39;102315.44;5012908;28;20058;-71
2022/03/10 02:42:41;;;;;;;47.50;22.35;;;;;;;4.84;41.37;102324.19;5014475;28;20045;-70
2022/03/10 02:45:09;;;;;;;47.03;21.33;;;;;;;4.79;41.61;102319.94;5031241;28;20069;-70
2022/03/10 02:47:36;;;;;;;45.08;22.15;;;;;;;5.02;41.33;102323.16;5029115;28;20493;-70
2022/03/10 02:50:06;;;;;;;44.88;21.33;;;;;;;5.03;40.97;102327.53;5030449;28;20053;-69
2022/03/10 02:52:38;;;;;;;49.05;22.50;;;;;;;4.68;41.83;102332.97;5011791;28;20060;-70
2022/03/10 02:55:05;;;;;;;43.03;21.13;;;;;;;4.70;41.64;102327.59;5020358;28;20052;-71
2022/03/10 02:57:32;;;;;;;53.38;22.02;;;;;;;4.37;42.63;102333.72;5022907;28;20440;-70
2022/03/10 02:59:59;;;;;;;53.90;23.02;;;;;;;4.54;42.47;102339.03;5031176;28;20069;-71
2022/03/10 03:02:27;;;;;;;48.40;21.65;;;;;;;4.90;41.37;102329.16;5014016;28;20462;-71
2022/03/10 03:04:53;;;;;;;43.72;21.17;;;;;;;5.00;41.13;102328.56;5011931;28;20128;-70
2022/03/10 03:07:20;;;;;;;47.20;22.88;;;;;;;5.71;39.80;102330.75;5011624;28;20091;-71
2022/03/10 03:09:46;;;;;;;45.17;21.23;;;;;;;5.68;39.61;102335.41;5011507;28;20050;-71
2022/03/10 03:12:13;;;;;;;49.17;22.77;;;;;;;5.54;39.84;102328.22;5011331;28;20105;-70
2022/03/10 03:14:40;;;;;;;50.78;23.15;;;;;;;5.57;39.85;102329.84;4983613;28;20085;-71
2022/03/10 03:17:06;;;;;;;47.63;20.15;;;;;;;5.70;39.71;102329.06;5000345;28;20066;-70
2022/03/10 03:19:33;;;;;;;45.05;21.95;;;;;;;5.60;39.82;102327.00;5010070;28;20380;-71
2022/03/10 03:21:59;;;;;;;54.22;21.90;;;;;;;5.39;40.33;102321.13;5026009;28;20108;-70
2022/03/10 03:24:26;;;;;;;43.88;21.23;;;;;;;5.60;39.86;102325.19;5029406;28;20056;-70
2022/03/10 03:26:52;;;;;;;45.33;22.10;;;;;;;5.44;40.18;102325.22;4993482;28;20120;-70
2022/03/10 03:29:19;;;;;;;50.45;22.75;;;;;;;5.59;40.09;102328.78;5011892;28;20134;-70
2022/03/10 03:31:48;;;;;;;48.58;22.42;;;;;;;5.68;39.62;102333.59;5011210;28;20049;-71
2022/03/10 03:34:14;;;;;;;43.85;22.13;;;;;;;5.92;39.10;102338.44;5022989;28;20045;-71
2022/03/10 03:36:42;;;;;;;48.25;22.52;;;;;;;5.92;39.15;102335.78;5030333;28;20061;-71
2022/03/10 03:39:10;;;;;;;45.65;22.40;;;;;;;6.00;39.43;102341.50;5031717;28;20099;-71
2022/03/10 03:41:37;;;;;;;49.40;22.83;;;;;;;5.87;39.24;102346.72;5031400;28;20045;-71
2022/03/10 03:44:07;;;;;;;48.33;23.88;;;;;;;5.82;39.48;102356.75;5030528;28;20493;-71
2022/03/10 03:46:34;;;;;;;60.97;23.30;;;;;;;5.58;40.06;102352.84;5030673;28;20088;-71
2022/03/10 03:49:06;;;;;;;45.72;22.50;;;;;;;4.91;41.13;102355.69;5030743;28;20038;-70
2022/03/10 03:51:32;;;;;;;43.40;21.95;;;;;;;5.29;40.83;102363.34;5016298;28;20444;-72
2022/03/10 03:53:59;;;;;;;52.25;24.10;;;;;;;5.06;41.23;102356.63;5011448;28;20077;-71
2022/03/10 03:56:26;;;;;;;51.20;22.33;;;;;;;5.42;40.47;102363.50;5021921;28;20109;-72
2022/03/10 03:58:53;;;;;;;53.33;24.38;;;;;;;5.28;40.82;102361.59;5016979;28;20045;-71
2022/03/10 04:01:19;;;;;;;51.33;22.98;;;;;;;4.86;41.34;102368.34;5033832;28;20080;-71
2022/03/10 04:03:46;;;;;;;59.00;24.00;;;;;;;4.67;42.28;102367.63;5021796;28;20061;-71
2022/03/10 04:06:13;;;;;;;51.85;23.58;;;;;;;4.53;42.66;102368.34;5013473;28;20080;-71
2022/03/10 04:08:39;;;;;;;56.72;23.73;;;;;;;4.65;42.34;102373.00;5015309;28;20125;-71
2022/03/10 04:11:06;;;;;;;46.75;22.85;;;;;;;4.61;42.16;102382.09;5015634;28;20121;-71
2022/03/10 04:13:32;;;;;;;53.13;23.65;;;;;;;4.51;42.62;102378.19;5034285;28;20508;-71
2022/03/10 04:15:59;;;;;;;48.70;22.40;;;;;;;5.13;41.33;102371.31;5033020;28;20125;-71
2022/03/10 04:18:25;;;;;;;48.95;23.20;;;;;;;4.62;42.23;102367.00;5034063;28;20042;-71
2022/03/10 04:20:52;;;;;;;46.38;21.63;;;;;;;4.76;42.30;102367.13;5034478;28;20067;-71
2022/03/10 04:23:18;;;;;;;53.95;22.55;;;;;;;5.20;41.01;102377.16;5033267;28;20141;-70
2022/03/10 04:25:45;;;;;;;58.00;23.08;;;;;;;5.09;41.48;102377.75;5025909;28;20213;-71
2022/03/10 04:28:11;;;;;;;50.67;23.45;;;;;;;4.95;41.85;102380.31;5032110;28;20087;-71
2022/03/10 04:30:44;;;;;;;52.60;22.27;;;;;;;5.01;41.68;102372.00;5014048;28;20042;-71
2022/03/10 04:33:11;;;;;;;51.13;23.42;;;;;;;5.05;41.17;102376.19;5014843;28;20052;-71
2022/03/10 04:35:37;;;;;;;50.92;24.23;;;;;;;4.90;41.55;102375.25;5014241;28;20473;-70
2022/03/10 04:38:04;;;;;;;48.42;23.05;;;;;;;4.71;42.18;102382.47;5014113;28;20046;-70
2022/03/10 04:40:31;;;;;;;53.92;22.88;;;;;;;4.77;42.24;102387.47;5005251;28;20077;-70
2022/03/10 04:42:58;;;;;;;51.55;23.77;;;;;;;5.32;41.07;102386.25;5014315;28;20085;-71
2022/03/10 04:45:25;;;;;;;46.97;22.55;;;;;;;5.66;40.11;102379.88;5018900;28;20128;-71
2022/03/10 04:47:51;;;;;;;60.58;23.40;;;;;;;5.39;40.47;102385.84;5020702;28;20581;-72
2022/03/10 04:50:18;;;;;;;49.03;23.38;;;;;;;5.36;40.77;102377.19;5023551;28;20061;-71
2022/03/10 04:52:45;;;;;;;55.10;25.23;;;;;;;5.91;39.67;102387.34;5034186;28;20426;-71
2022/03/10 04:55:12;;;;;;;49.28;23.80;;;;;;;5.87;39.63;102388.44;5025529;28;20051;-71
2022/03/10 04:57:40;;;;;;;50.85;23.67;;;;;;;5.81;39.30;102386.16;5019136;28;20452;-71
2022/03/10 05:00:10;;;;;;;53.08;25.65;;;;;;;5.10;40.88;102391.91;5033601;28;20133;-71
2022/03/10 05:02:39;;;;;;;58.47;24.50;;;;;;;5.19;41.12;102388.75;5022799;28;20422;-71
2022/03/10 05:05:12;;;;;;;55.25;24.33;;;;;;;4.88;41.46;102392.22;5013585;28;20285;-71
2022/03/10 05:07:39;;;;;;;55.00;23.80;;;;;;;5.00;41.16;102391.53;5012315;28;20126;-71
2022/03/10 05:10:06;;;;;;;45.58;22.52;;;;;;;5.12;41.10;102390.03;5013814;28;20434;-71
2022/03/10 05:12:32;;;;;;;48.53;22.88;;;;;;;4.88;41.53;102390.41;5026196;28;20462;-71
2022/03/10 05:15:01;;;;;;;59.72;25.23;;;;;;;4.85;41.18;102400.34;5020902;28;20540;-71
2022/03/10 05:17:27;;;;;;;50.42;24.40;;;;;;;5.28;41.04;102402.41;5029992;28;20076;-71
2022/03/10 05:19:54;;;;;;;56.50;24.13;;;;;;;5.00;41.73;102386.22;5019346;28;20050;-71
2022/03/10 05:22:21;;;;;;;57.15;23.52;;;;;;;5.07;41.55;102390.25;5012713;28;20056;-71
2022/03/10 05:24:48;;;;;;;50.47;23.38;;;;;;;5.14;41.35;102393.44;5023591;28;20469;-71
2022/03/10 05:27:14;;;;;;;59.70;24.17;;;;;;;5.11;41.61;102388.28;5012964;28;20065;-71
2022/03/10 05:29:41;;;;;;;63.58;26.17;;;;;;;5.14;41.25;102394.31;5016893;28;20120;-71
2022/03/10 05:32:09;;;;;;;55.40;24.15;;;;;;;5.21;41.17;102382.41;5021324;28;20049;-71
2022/03/10 05:34:38;;;;;;;49.80;23.50;;;;;;;5.24;41.00;102392.84;5016621;28;20181;-71
2022/03/10 05:37:04;;;;;;;51.80;22.58;;;;;;;5.12;41.12;102396.19;5021591;28;20117;-71
2022/03/10 05:39:31;;;;;;;52.25;24.40;;;;;;;4.65;42.48;102399.59;5015775;28;20049;-71
2022/03/10 05:41:57;;;;;;;48.17;22.95;;;;;;;4.39;43.06;102402.75;5032252;28;20053;-71
2022/03/10 05:44:24;;;;;;;50.65;23.20;;;;;;;4.61;42.50;102398.03;5014924;28;20050;-70
2022/03/10 05:46:50;;;;;;;54.88;23.65;;;;;;;4.87;42.16;102404.66;5013352;28;20096;-71
2022/03/10 05:49:17;;;;;;;60.65;26.13;;;;;;;4.55;42.59;102399.22;5014079;28;20124;-71
2022/03/10 05:51:43;;;;;;;56.58;25.40;;;;;;;5.14;41.73;102404.94;5019624;28;20132;-71
2022/03/10 05:54:10;;;;;;;54.08;25.85;;;;;;;4.93;41.79;102401.63;5031945;28;20119;-71
2022/03/10 05:56:36;;;;;;;58.13;23.63;;;;;;;4.41;43.24;102408.84;5032098;28;20129;-71
2022/03/10 05:59:03;;;;;;;57.75;25.02;;;;;;;4.54;42.71;102402.81;5024963;28;20083;-70
2022/03/10 06:01:30;;;;;;;53.25;25.38;;;;;;;4.44;43.51;102408.69;5015657;28;20045;-71
2022/03/10 06:03:57;;;;;;;55.10;25.45;;;;;;;5.16;41.49;102415.53;5032212;28;20053;-70
2022/03/10 06:06:24;;;;;;;61.05;26.33;;;;;;;4.44;43.07;102406.03;5023283;28;20049;-70
2022/03/10 06:08:50;;;;;;;55.63;25.88;;;;;;;4.42;42.94;102408.78;5012579;28;20104;-71
2022/03/10 06:11:17;;;;;;;51.65;24.58;;;;;;;4.63;42.60;102406.81;5013399;28;20500;-70
2022/03/10 06:13:43;;;;;;;55.47;26.25;;;;;;;4.95;41.90;102406.91;5011934;28;20133;-71
2022/03/10 06:16:10;;;;;;;52.88;24.70;;;;;;;4.74;42.21;102415.06;5017619;28;20497;-71
2022/03/10 06:18:36;;;;;;;61.97;25.17;;;;;;;4.47;43.20;102419.16;5027084;28;20494;-70
2022/03/10 06:21:06;;;;;;;58.55;26.05;;;;;;;4.92;41.99;102423.00;5011992;28;20486;-71
2022/03/10 06:23:32;;;;;;;56.47;24.88;;;;;;;4.87;42.49;102425.03;5011835;28;20552;-71
2022/03/10 06:25:59;;;;;;;57.80;26.25;;;;;;;4.93;41.87;102424.72;5012035;28;20124;-71
2022/03/10 06:28:25;;;;;;;64.13;25.58;;;;;;;5.19;41.55;102433.97;5011897;28;20061;-71
2022/03/10 06:30:52;;;;;;;52.53;25.52;;;;;;;5.57;40.74;102431.88;4995288;28;20062;-70
2022/03/10 06:33:18;;;;;;;63.05;26.48;;;;;;;5.00;41.97;102436.75;5012059;28;20045;-71
2022/03/10 06:35:46;;;;;;;61.15;26.17;;;;;;;4.13;44.21;102433.25;5012220;28;20501;-71
2022/03/10 06:38:12;;;;;;;56.20;25.42;;;;;;;4.69;43.04;102453.47;5011966;28;20100;-71
2022/03/10 06:40:38;;;;;;;52.22;24.45;;;;;;;4.98;42.26;102455.47;5012407;28;20118;-71
2022/03/10 06:43:05;;;;;;;55.83;25.23;;;;;;;4.69;42.74;102454.31;5011728;28;20133;-70
2022/03/10 06:45:32;;;;;;;59.00;25.33;;;;;;;5.06;41.89;102449.72;5011940;28;20069;-71
2022/03/10 06:47:58;;;;;;;51.55;24.70;;;;;;;5.65;40.87;102455.41;5012133;28;20070;-71
2022/03/10 06:50:25;;;;;;;55.97;25.27;;;;;;;5.04;42.02;102457.81;5012186;28;20084;-71
2022/03/10 06:52:56;;;;;;;55.08;25.52;;;;;;;5.43;41.31;102453.06;5012585;28;20125;-71
2022/03/10 06:55:24;;;;;;;54.67;24.75;;;;;;;5.40;41.17;102462.06;5012995;28;20393;-70
2022/03/10 06:57:52;;;;;;;54.90;25.45;;;;;;;5.59;40.78;102464.56;5012083;28;20045;-71
2022/03/10 07:00:20;;;;;;;57.65;25.27;;;;;;;6.10;39.91;102472.38;5024386;28;20065;-72
2022/03/10 07:02:47;;;;;;;62.22;24.35;;;;;;;5.78;40.28;102472.41;5028664;28;20046;-71
2022/03/10 07:05:19;;;;;;;58.72;25.92;;;;;;;6.52;39.02;102474.38;5024417;28;20379;-71
2022/03/10 07:07:46;;;;;;;57.70;24.05;;;;;;;6.61;38.62;102471.16;5012294;28;20049;-71
2022/03/10 07:10:13;;;;;;;50.78;24.23;;;;;;;7.30;37.38;102466.09;5012478;28;20129;-71
2022/03/10 07:12:41;;;;;;;54.53;25.10;;;;;;;7.42;37.09;102470.66;5013429;28;20045;-71
2022/03/10 07:15:10;;;;;;;54.40;24.88;;;;;;;7.70;36.51;102463.53;5013551;28;20049;-71
2022/03/10 07:17:41;;;;;;;61.05;24.60;;;;;;;7.74;36.58;102470.41;5012167;28;20375;-71
2022/03/10 07:20:09;;;;;;;50.90;25.17;;;;;;;7.94;36.05;102477.16;5010267;28;20092;-71
2022/03/10 07:22:35;;;;;;;57.55;24.02;;;;;;;8.76;34.88;102473.44;5021942;28;20052;-72
2022/03/10 07:25:02;;;;;;;49.88;23.60;;;;;;;9.35;33.53;102479.13;5031233;28;20136;-72
2022/03/10 07:27:29;;;;;;;51.78;23.83;;;;;;;9.44;33.02;102481.19;5031278;28;20456;-72
2022/03/10 07:29:55;;;;;;;51.40;23.08;;;;;;;10.08;32.40;102477.44;5031328;28;20129;-72
2022/03/10 07:32:26;;;;;;;47.50;24.38;;;;;;;9.65;33.04;102491.31;5032208;28;20116;-72
2022/03/10 07:34:52;;;;;;;53.92;24.83;;;;;;;10.93;30.84;102495.09;5028856;28;20053;-72
2022/03/10 07:37:19;;;;;;;49.03;23.60;;;;;;;10.46;31.32;102486.13;5015082;28;20144;-72
2022/03/10 07:39:46;;;;;;;48.35;23.92;;;;;;;11.30;30.21;102500.25;5015849;28;20073;-72
2022/03/10 07:42:12;;;;;;;51.40;24.63;;;;;;;10.95;30.85;102495.81;5016073;28;20065;-72
2022/03/10 07:44:39;;;;;;;45.90;23.55;;;;;;;12.17;29.51;102495.00;5029470;28;20045;-72
2022/03/10 07:47:05;;;;;;;51.08;24.63;;;;;;;11.58;29.72;102493.50;5035630;28;20080;-72
2022/03/10 07:49:32;;;;;;;49.83;22.27;;;;;;;11.23;31.09;102499.88;5035673;28;20421;-72
2022/03/10 07:52:01;;;;;;;45.88;23.38;;;;;;;11.39;30.69;102502.22;5035656;28;20503;-72
2022/03/10 07:54:27;;;;;;;53.72;23.65;;;;;;;11.58;30.35;102498.03;5035249;28;20042;-72
2022/03/10 07:56:54;;;;;;;41.08;21.73;;;;;;;10.67;32.07;102501.59;4995984;28;20398;-72
2022/03/10 07:59:20;;;;;;;50.75;23.33;;;;;;;11.08;31.72;102497.56;4996151;28;20073;-72
2022/03/10 08:01:47;;;;;;;50.50;22.80;;;;;;;11.21;31.21;102501.84;4995793;28;20073;-72
2022/03/10 08:04:14;;;;;;;44.53;23.13;;;;;;;11.73;30.69;102502.22;4995642;28;20050;-72
2022/03/10 08:06:40;;;;;;;49.60;23.42;;;;;;;11.43;31.30;102500.97;4995943;28;20073;-72
2022/03/10 08:09:07;;;;;;;43.25;22.63;;;;;;;10.42;32.86;102513.31;4995122;28;20097;-72
2022/03/10 08:11:33;;;;;;;44.03;22.83;;;;;;;10.34;33.49;102505.84;4994956;28;20406;-72
2022/03/10 08:14:00;;;;;;;47.08;23.08;;;;;;;9.78;34.66;102509.03;4994753;28;20146;-72
2022/03/10 08:16:26;;;;;;;48.42;23.63;;;;;;;10.26;33.63;102505.56;4996730;28;20043;-71
2022/03/10 08:18:53;;;;;;;47.78;23.15;;;;;;;10.02;33.93;102503.72;4996397;28;20350;-72
2022/03/10 08:21:19;;;;;;;56.75;23.52;;;;;;;10.52;33.50;102498.28;4995310;28;20057;-72
2022/03/10 08:23:46;;;;;;;48.60;22.88;;;;;;;9.92;34.36;102508.03;4995579;28;20073;-72
2022/03/10 08:26:13;;;;;;;50.85;21.92;;;;;;;10.12;33.97;102514.63;4995257;28;20096;-72
2022/03/10 08:28:39;;;;;;;49.97;23.58;;;;;;;10.82;33.02;102508.47;4995966;28;20121;-72
2022/03/10 08:31:06;;;;;;;46.92;22.55;;;;;;;10.48;33.60;102510.19;4995192;28;20051;-72
2022/03/10 08:33:32;;;;;;;49.75;22.33;;;;;;;10.40;33.71;102508.06;4994972;28;20049;-72
2022/03/10 08:35:59;;;;;;;45.22;22.50;;;;;;;11.13;32.67;102514.16;4995571;28;20064;-72
2022/03/10 08:38:26;;;;;;;48.42;22.50;;;;;;;10.93;33.38;102508.53;4995846;28;20125;-71
2022/03/10 08:40:52;;;;;;;45.53;21.30;;;;;;;11.88;31.68;102510.88;4995387;28;20105;-73
2022/03/10 08:43:20;;;;;;;51.97;22.60;;;;;;;11.97;31.48;102512.81;4995813;28;20137;-73
2022/03/10 08:45:46;;;;;;;49.90;20.58;;;;;;;11.21;32.45;102517.97;4993867;28;20551;-72
2022/03/10 08:48:13;;;;;;;43.80;21.38;;;;;;;11.42;32.63;102520.78;4994617;28;20124;-73
2022/03/10 08:50:40;;;;;;;47.70;22.58;;;;;;;10.18;34.42;102510.66;4994263;28;20065;-72
2022/03/10 08:53:06;;;;;;;45.83;21.75;;;;;;;10.94;33.47;102520.97;4994276;28;20070;-72
2022/03/10 08:55:33;;;;;;;43.92;23.75;;;;;;;10.34;34.72;102515.72;5012045;28;20068;-72
2022/03/10 08:58:00;;;;;;;46.33;22.48;;;;;;;11.06;33.44;102512.91;5033453;28;20045;-71
2022/03/10 09:00:26;;;;;;;51.03;21.23;;;;;;;12.53;31.06;102509.09;5032951;28;20049;-71
2022/03/10 09:02:56;;;;;;;45.35;22.25;;;;;;;12.82;30.72;102515.56;5034037;28;20041;-73
2022/03/10 09:05:23;;;;;;;45.55;22.17;;;;;;;13.36;29.99;102516.31;5033052;28;20042;-73
2022/03/10 09:07:50;;;;;;;50.83;23.27;;;;;;;13.95;28.94;102518.25;5032773;28;20128;-73
2022/03/10 09:10:16;;;;;;;49.58;24.38;;;;;;;14.19;28.93;102514.31;5032393;28;20053;-73
2022/03/10 09:12:43;;;;;;;51.00;24.60;;;;;;;14.36;28.13;102510.03;5033327;28;20065;-72
2022/03/10 09:15:13;;;;;;;48.08;24.00;;;;;;;15.15;27.47;102517.94;5032997;28;20073;-72
2022/03/10 09:17:40;;;;;;;42.65;23.30;;;;;;;15.25;27.18;102519.59;5032878;28;20128;-71
2022/03/10 09:20:08;;;;;;;55.92;24.75;;;;;;;15.13;27.39;102515.38;5028000;28;20081;-72
2022/03/10 09:22:34;;;;;;;42.17;22.05;;;;;;;14.74;28.12;102514.63;5032484;28;20111;-72
2022/03/10 09:25:02;;;;;;;48.00;22.63;;;;;;;14.12;28.91;102514.00;5032497;28;20452;-73
2022/03/10 09:27:29;;;;;;;40.85;22.05;;;;;;;14.55;28.64;102523.53;5032811;28;20068;-73
2022/03/10 09:29:56;;;;;;;41.75;21.83;;;;;;;14.60;28.45;102517.72;5033234;28;20132;-73
2022/03/10 09:32:23;;;;;;;42.30;21.80;;;;;;;14.65;28.28;102516.28;5032997;28;20064;-73
2022/03/10 09:34:49;;;;;;;44.03;24.00;;;;;;;14.38;28.54;102517.00;5032250;28;20076;-73
2022/03/10 09:37:16;;;;;;;48.70;23.60;;;;;;;14.47;28.38;102516.16;5032272;28;20069;-73
2022/03/10 09:39:42;;;;;;;43.83;22.52;;;;;;;14.44;28.37;102512.91;5032525;28;20091;-73
2022/03/10 09:42:09;;;;;;;44.35;22.73;;;;;;;14.28;28.40;102514.28;5032074;28;20515;-73
2022/03/10 09:44:36;;;;;;;45.78;21.42;;;;;;;15.41;27.14;102518.16;5032051;28;20050;-73
2022/03/10 09:47:04;;;;;;;40.47;22.05;;;;;;;14.74;27.50;102526.28;5032961;28;21940;-73
2022/03/10 09:49:34;;;;;;;41.75;21.23;;;;;;;13.44;30.04;102521.88;5031570;28;20537;-72
2022/03/10 09:52:00;;;;;;;37.47;21.38;;;;;;;14.28;28.85;102524.25;5032262;28;20053;-73
2022/03/10 09:54:27;;;;;;;37.55;20.05;;;;;;;15.05;27.91;102520.69;5028973;28;20137;-71
2022/03/10 09:56:55;;;;;;;42.08;19.65;;;;;;;15.54;27.17;102520.53;4991825;28;20070;-73
2022/03/10 09:59:22;;;;;;;35.83;19.15;;;;;;;14.81;27.86;102512.16;4994078;28;20050;-73
2022/03/10 10:01:49;;;;;;;39.35;19.67;;;;;;;16.32;26.33;102513.63;4988482;28;20121;-72
2022/03/10 10:04:19;;;;;;;37.08;20.35;;;;;;;15.11;27.93;102516.53;4972827;28;20055;-73
2022/03/10 10:07:06;;;;;;;39.88;20.85;;;;;;;14.79;28.35;102511.47;4973639;28;20130;-73
2022/03/10 10:09:43;;;;;;;48.55;21.23;;;;;;;14.28;29.03;102514.28;4973090;28;20074;-73
2022/03/10 10:12:11;;;;;;;44.53;21.27;;;;;;;14.00;29.74;102515.97;4973743;28;20077;-73
2022/03/10 10:14:41;;;;;;;49.53;21.98;;;;;;;15.13;28.29;102514.53;4975147;28;20070;-76
2022/03/10 10:17:08;;;;;;;33.88;19.15;;;;;;;15.33;27.84;102504.50;4972972;28;20081;-75
2022/03/10 10:19:37;;;;;;;40.53;20.65;;;;;;;13.83;29.95;102504.00;4973153;28;20070;-76
2022/03/10 10:22:24;;;;;;;33.42;17.05;;;;;;;14.50;29.17;102512.34;4972733;28;20043;-75
2022/03/10 10:24:59;;;;;;;31.20;16.60;;;;;;;14.81;28.67;102521.16;4972911;28;20051;-76
2022/03/10 10:27:28;;;;;;;29.13;14.85;;;;;;;14.23;28.78;102518.44;4983350;28;20066;-74
2022/03/10 10:29:58;;;;;;;26.58;14.80;;;;;;;14.75;28.50;102525.28;4972157;28;20053;-75
2022/03/10 10:32:33;;;;;;;28.55;14.90;;;;;;;15.37;27.45;102519.44;4972963;28;20475;-75
2022/03/10 10:35:05;;;;;;;26.15;14.80;;;;;;;15.25;27.66;102524.16;4972407;28;20086;-75
2022/03/10 10:37:32;;;;;;;26.00;16.05;;;;;;;15.38;27.37;102522.00;4973186;28;20135;-75
2022/03/10 10:40:07;;;;;;;33.10;16.95;;;;;;;16.24;26.33;102520.84;4972425;28;20550;-74
2022/03/10 10:42:37;;;;;;;29.83;16.77;;;;;;;15.53;27.17;102522.34;4972789;28;20047;-75
2022/03/10 10:45:28;;;;;;;30.40;17.75;;;;;;;14.63;28.38;102509.31;4973298;28;20054;-75
2022/03/10 10:48:03;;;;;;;32.90;18.23;;;;;;;14.77;28.16;102523.28;4984931;28;20133;-76
2022/03/10 10:50:34;;;;;;;38.30;19.20;;;;;;;13.48;30.07;102519.75;4973076;28;20047;-76
2022/03/10 10:53:02;;;;;;;33.08;19.30;;;;;;;11.77;32.87;102522.50;4973249;28;20046;-74
2022/03/10 10:55:33;;;;;;;37.22;19.58;;;;;;;11.67;33.07;102511.63;4988725;28;20068;-76
2022/03/10 10:58:09;;;;;;;40.90;19.35;;;;;;;11.89;33.25;102515.25;5002002;28;20138;-75
2022/03/10 11:00:47;;;;;;;34.13;17.85;;;;;;;11.15;34.09;102505.00;5011645;28;20038;-75
2022/03/10 11:03:34;;;;;;;35.00;18.98;;;;;;;10.58;35.32;102519.28;5011949;28;20409;-75
2022/03/10 11:06:01;;;;;;;34.08;18.02;;;;;;;11.30;33.70;102508.31;5011575;28;20062;-75
2022/03/10 11:08:30;;;;;;;36.45;19.20;;;;;;;11.55;33.62;102509.03;5011476;28;20042;-75
2022/03/10 11:10:58;;;;;;;29.77;17.65;;;;;;;10.47;35.25;102511.13;5012531;28;20104;-75
2022/03/10 11:13:25;;;;;;;38.15;17.92;;;;;;;9.99;36.16;102506.66;5012609;28;20042;-75
2022/03/10 11:15:55;;;;;;;34.25;18.58;;;;;;;10.28;35.34;102517.91;5011836;28;20042;-74
2022/03/10 11:18:23;;;;;;;37.70;17.75;;;;;;;9.81;35.88;102510.66;5011090;28;20046;-73
2022/03/10 11:20:55;;;;;;;33.72;18.42;;;;;;;9.97;35.84;102515.78;5010829;28;20041;-73
2022/03/10 11:23:42;;;;;;;30.80;16.95;;;;;;;10.66;34.51;102505.28;5011839;28;20140;-73